Toquerville, Utah
Current Conditions -  °F | °C
As of 8:35 AM on Saturday 22 Nov 2014 (Local Time) from KSGU Reporting Station
Clear Clear  
Wind Chill:   Ceiling: Unl
Heat Index:   Visibility: 10mi
Dew Point: -7°   Wind: 3mph
Humidity: 45%   Direction: 320°NW
Pressure: 30.12"   Gusts: NA
Location:  37.25°N, 113.28°W
Report Text: KSGU 221535Z AUTO 32003KT 10SM CLR 04/M07 A3012 RMK AO1
Loading
Personal Weather Stations






























Interactive Weather Map New forecast layout! Learn more

10-Day Weather Forecast

Advertisements
Track Severe Weather on mobile